Time;durP1;ratioP1;P1;durP2;ratioP2;P2;SDS_P1;SDS_P2;PMS_P1;PMS_P2;Temp;Humidity;BMP_temperature;BMP_pressure;BME280_temperature;BME280_humidity;BME280_pressure;Samples;Min_cycle;Max_cycle;Signal;HPM_P1;HPM_P2
2023/05/04 00:00:06;;;;;;;6.97;5.90;;;;;;;15.05;100.00;100833.66;5110648;28;20035;-62
2023/05/04 00:02:32;;;;;;;6.18;5.38;;;;;;;14.92;100.00;100823.22;5110590;28;20023;-62
2023/05/04 00:04:58;;;;;;;6.22;5.55;;;;;;;14.96;100.00;100826.47;5110959;28;20430;-62
2023/05/04 00:07:23;;;;;;;6.55;5.13;;;;;;;14.97;100.00;100834.44;5109023;28;20039;-67
2023/05/04 00:09:49;;;;;;;7.15;5.55;;;;;;;14.94;100.00;100831.16;5110629;28;20443;-67
2023/05/04 00:12:15;;;;;;;8.23;5.43;;;;;;;14.93;100.00;100832.19;5110277;28;20050;-67
2023/05/04 00:14:40;;;;;;;7.30;5.30;;;;;;;14.85;100.00;100827.50;5106984;28;20471;-67
2023/05/04 00:17:06;;;;;;;7.63;5.07;;;;;;;14.84;98.71;100833.94;5108420;28;20478;-67
2023/05/04 00:19:35;;;;;;;7.13;5.57;;;;;;;14.75;97.69;100812.34;5110833;28;20425;-67
2023/05/04 00:22:01;;;;;;;10.55;5.35;;;;;;;14.78;96.81;100828.25;5110878;28;20040;-67
2023/05/04 00:24:27;;;;;;;6.80;5.45;;;;;;;14.80;96.69;100827.09;5110785;28;20038;-67
2023/05/04 00:26:53;;;;;;;7.15;5.90;;;;;;;14.72;98.11;100820.75;5110662;28;20507;-67
2023/05/04 00:29:18;;;;;;;5.85;5.25;;;;;;;14.74;98.16;100830.38;5110368;28;20031;-67
2023/05/04 00:31:44;;;;;;;5.60;5.03;;;;;;;14.76;97.28;100828.41;5110657;28;20020;-67
2023/05/04 00:34:09;;;;;;;7.70;6.28;;;;;;;14.73;98.69;100828.69;5109107;28;20027;-67
2023/05/04 00:36:35;;;;;;;8.32;5.50;;;;;;;14.75;98.62;100834.81;5110178;28;20033;-67
2023/05/04 00:39:00;;;;;;;6.97;6.05;;;;;;;14.74;99.15;100840.34;5110632;28;20464;-67
2023/05/04 00:41:26;;;;;;;8.82;5.72;;;;;;;14.62;98.80;100819.94;5108028;28;20484;-67
2023/05/04 00:43:51;;;;;;;8.25;5.70;;;;;;;14.70;98.19;100834.38;5110347;28;20172;-67
2023/05/04 00:46:17;;;;;;;6.88;5.28;;;;;;;14.66;99.18;100824.91;5109816;28;20048;-67
2023/05/04 00:48:45;;;;;;;8.38;5.97;;;;;;;14.63;100.00;100824.31;5110215;28;20072;-67
2023/05/04 00:51:13;;;;;;;6.80;6.05;;;;;;;14.65;100.00;100834.00;5110122;28;20040;-67
2023/05/04 00:53:40;;;;;;;8.73;5.80;;;;;;;14.57;100.00;100828.47;5108872;28;20046;-67
2023/05/04 00:56:06;;;;;;;7.40;5.68;;;;;;;14.60;100.00;100838.97;5109895;28;20026;-67
2023/05/04 00:58:32;;;;;;;7.40;6.13;;;;;;;14.59;100.00;100842.69;5109869;28;20114;-67
2023/05/04 01:00:58;;;;;;;7.45;6.20;;;;;;;14.57;100.00;100838.44;5110272;28;20149;-67
2023/05/04 01:03:25;;;;;;;6.90;6.30;;;;;;;14.56;100.00;100834.03;5109783;28;20027;-67
2023/05/04 01:06:23;;;;;;;6.70;5.43;;;;;;;14.52;100.00;100832.63;5108444;28;20031;-67
2023/05/04 01:09:07;;;;;;;7.53;5.80;;;;;;;14.42;100.00;100824.56;5109852;28;20042;-67
2023/05/04 01:11:42;;;;;;;6.28;5.53;;;;;;;14.48;100.00;100832.06;5108580;28;20058;-67
2023/05/04 01:14:10;;;;;;;6.30;5.68;;;;;;;14.46;100.00;100827.81;5109776;28;20074;-67
2023/05/04 01:16:36;;;;;;;7.43;6.28;;;;;;;14.33;100.00;100813.78;5109357;28;20111;-67
2023/05/04 01:19:02;;;;;;;6.70;5.70;;;;;;;14.39;100.00;100822.16;5109620;28;20114;-67
2023/05/04 01:21:29;;;;;;;9.38;6.43;;;;;;;14.32;100.00;100804.81;5109250;28;20558;-67
2023/05/04 01:23:55;;;;;;;7.63;6.45;;;;;;;14.40;100.00;100814.91;5109345;28;20548;-67
2023/05/04 01:26:26;;;;;;;7.88;6.32;;;;;;;14.30;100.00;100797.88;5109605;28;20023;-67
2023/05/04 01:29:12;;;;;;;8.13;6.00;;;;;;;14.35;100.00;100799.13;5108255;28;20024;-67
2023/05/04 01:31:39;;;;;;;6.63;5.82;;;;;;;14.34;100.00;100810.06;5109123;28;20055;-67
2023/05/04 01:34:06;;;;;;;8.30;6.18;;;;;;;14.22;100.00;100792.34;5109347;28;20028;-67
2023/05/04 01:36:32;;;;;;;7.35;6.10;;;;;;;14.22;100.00;100793.19;5107687;28;20368;-67
2023/05/04 01:38:58;;;;;;;6.18;5.40;;;;;;;14.27;100.00;100803.56;5109312;28;20027;-66
2023/05/04 01:41:25;;;;;;;6.57;5.20;;;;;;;14.28;100.00;100808.81;5109395;28;20023;-67
2023/05/04 01:43:51;;;;;;;7.07;5.80;;;;;;;14.15;100.00;100783.97;5109307;28;20033;-66
2023/05/04 01:46:16;;;;;;;6.90;5.78;;;;;;;14.24;100.00;100796.63;5108842;28;20054;-67
2023/05/04 01:48:42;;;;;;;7.25;5.78;;;;;;;14.18;99.97;100786.38;5108670;28;20020;-67
2023/05/04 01:51:07;;;;;;;7.50;6.05;;;;;;;14.21;100.00;100794.19;5107697;28;20575;-67
2023/05/04 01:53:33;;;;;;;7.20;5.72;;;;;;;14.19;100.00;100795.34;5109038;28;20035;-67
2023/05/04 01:55:58;;;;;;;8.40;5.57;;;;;;;14.04;99.00;100772.50;5108723;28;20088;-67
2023/05/04 01:58:23;;;;;;;7.25;5.53;;;;;;;14.13;98.48;100786.00;5107552;28;20028;-67
2023/05/04 02:00:49;;;;;;;6.13;5.40;;;;;;;14.08;98.04;100784.69;5109011;28;20036;-66
2023/05/04 02:03:14;;;;;;;6.03;5.40;;;;;;;14.02;97.65;100772.66;5109183;28;20029;-67
2023/05/04 02:05:40;;;;;;;5.60;5.00;;;;;;;14.05;97.47;100774.19;5108751;28;20015;-67
2023/05/04 02:08:05;;;;;;;6.43;5.40;;;;;;;14.07;97.68;100783.00;5107738;28;20027;-67
2023/05/04 02:10:31;;;;;;;6.07;5.47;;;;;;;13.94;98.70;100767.16;5108509;28;20048;-66
2023/05/04 02:12:56;;;;;;;5.75;5.18;;;;;;;13.92;98.05;100758.34;5108833;28;20035;-67
2023/05/04 02:15:22;;;;;;;5.82;5.07;;;;;;;13.95;98.58;100774.22;5108626;28;20027;-66
2023/05/04 02:17:47;;;;;;;8.13;5.22;;;;;;;13.97;98.61;100784.88;5108737;28;20024;-67
2023/05/04 02:20:13;;;;;;;9.82;5.18;;;;;;;13.96;98.87;100785.88;5108514;28;20016;-66
2023/05/04 02:22:39;;;;;;;7.00;5.38;;;;;;;13.88;100.00;100767.72;5108828;28;20035;-66
2023/05/04 02:25:06;;;;;;;6.10;5.50;;;;;;;13.91;100.00;100783.63;5107386;28;20090;-67
2023/05/04 02:27:31;;;;;;;7.90;5.38;;;;;;;13.95;100.00;100794.94;5107090;28;20050;-66
2023/05/04 02:29:57;;;;;;;6.45;5.60;;;;;;;13.93;100.00;100794.25;5108772;28;20379;-61
2023/05/04 02:32:24;;;;;;;6.72;5.53;;;;;;;13.87;100.00;100776.81;5108359;28;20043;-61
2023/05/04 02:34:50;;;;;;;8.07;5.88;;;;;;;13.76;100.00;100760.78;5108783;28;20032;-61
2023/05/04 02:37:16;;;;;;;7.00;5.70;;;;;;;13.88;100.00;100781.22;5108415;28;20042;-61
2023/05/04 02:39:41;;;;;;;7.88;6.35;;;;;;;13.77;100.00;100762.50;5108511;28;20035;-67
2023/05/04 02:42:07;;;;;;;7.80;6.35;;;;;;;13.76;100.00;100762.66;5107076;28;20052;-66
2023/05/04 02:44:32;;;;;;;7.70;6.55;;;;;;;13.88;100.00;100793.81;5106912;28;20044;-66
2023/05/04 02:46:57;;;;;;;13.00;6.47;;;;;;;13.85;100.00;100789.59;5108068;28;20464;-66
2023/05/04 02:49:23;;;;;;;9.82;6.22;;;;;;;13.82;100.00;100795.25;5108380;28;20027;-66
2023/05/04 02:51:48;;;;;;;6.93;6.05;;;;;;;13.86;100.00;100793.97;5105870;28;20063;-67
2023/05/04 02:54:14;;;;;;;8.90;6.95;;;;;;;13.74;100.00;100787.88;5104568;28;20047;-67
2023/05/04 02:56:39;;;;;;;7.63;5.95;;;;;;;13.87;100.00;100798.38;5107144;28;20036;-62
2023/05/04 02:59:05;;;;;;;6.75;5.93;;;;;;;13.81;100.00;100798.97;5108335;28;20034;-62
2023/05/04 03:01:31;;;;;;;7.40;6.43;;;;;;;13.85;100.00;100808.47;5108296;28;20051;-61
2023/05/04 03:03:56;;;;;;;6.88;6.18;;;;;;;13.77;100.00;100786.78;5108314;28;20051;-61
2023/05/04 03:06:21;;;;;;;8.65;6.55;;;;;;;13.73;100.00;100788.88;5111959;28;20023;-61
2023/05/04 03:08:47;;;;;;;8.20;6.47;;;;;;;13.81;100.00;100798.97;5112076;28;20024;-61
2023/05/04 03:11:13;;;;;;;8.23;6.43;;;;;;;13.85;100.00;100799.50;5112267;28;20384;-61
2023/05/04 03:13:38;;;;;;;10.18;6.55;;;;;;;13.73;100.00;100776.41;5112283;27;20472;-67
2023/05/04 03:16:04;;;;;;;7.22;6.07;;;;;;;13.82;100.00;100792.56;5112151;28;20038;-67
2023/05/04 03:18:30;;;;;;;9.82;6.72;;;;;;;13.78;100.00;100783.91;5111340;28;20096;-66
2023/05/04 03:20:55;;;;;;;7.47;6.75;;;;;;;13.71;100.00;100773.84;5111666;28;21352;-66
2023/05/04 03:23:21;;;;;;;8.25;6.30;;;;;;;13.82;100.00;100789.88;5111874;28;20031;-66
2023/05/04 03:25:46;;;;;;;6.30;5.68;;;;;;;13.83;100.00;100801.50;5111663;28;20044;-61
2023/05/04 03:28:12;;;;;;;7.38;5.82;;;;;;;13.77;100.00;100794.84;5111603;28;20028;-67
2023/05/04 03:30:38;;;;;;;8.80;6.38;;;;;;;13.73;100.00;100796.13;5111709;28;20423;-61
2023/05/04 03:33:03;;;;;;;6.22;5.55;;;;;;;13.62;100.00;100783.66;5112048;28;20034;-60
2023/05/04 03:35:29;;;;;;;7.03;5.90;;;;;;;13.68;100.00;100795.72;5111424;28;20035;-61
2023/05/04 03:37:54;;;;;;;7.55;5.65;;;;;;;13.64;100.00;100794.25;5111744;28;20482;-61
2023/05/04 03:40:21;;;;;;;6.28;5.63;;;;;;;13.61;100.00;100792.72;5111364;28;20028;-61
2023/05/04 03:42:48;;;;;;;6.85;5.57;;;;;;;13.60;99.10;100790.16;5110150;28;20030;-60
2023/05/04 03:45:13;;;;;;;6.78;5.75;;;;;;;13.57;100.00;100790.44;5111212;28;20044;-61
2023/05/04 03:47:39;;;;;;;6.03;5.43;;;;;;;13.62;100.00;100801.66;5111597;28;20046;-67
2023/05/04 03:50:05;;;;;;;6.43;5.47;;;;;;;13.34;100.00;100767.47;5111430;28;20484;-61
2023/05/04 03:52:30;;;;;;;6.57;5.57;;;;;;;13.59;99.70;100807.34;5109740;28;20055;-61
2023/05/04 03:54:56;;;;;;;6.47;5.82;;;;;;;13.52;99.41;100808.91;5110077;28;20110;-61
2023/05/04 03:57:23;;;;;;;8.93;7.40;;;;;;;13.46;100.00;100809.47;5110296;28;20028;-67
2023/05/04 03:59:49;;;;;;;7.32;6.63;;;;;;;13.42;99.81;100791.88;5110437;28;20027;-67
2023/05/04 04:02:16;;;;;;;8.05;6.35;;;;;;;13.53;100.00;100814.16;5108764;28;20060;-67
2023/05/04 04:04:41;;;;;;;7.70;5.85;;;;;;;13.48;100.00;100802.94;5107536;28;21379;-67
2023/05/04 04:07:07;;;;;;;9.85;6.50;;;;;;;13.56;100.00;100813.00;5108432;28;20036;-66
2023/05/04 04:09:33;;;;;;;7.57;6.45;;;;;;;13.52;100.00;100809.72;5109740;28;20047;-66
2023/05/04 04:11:58;;;;;;;10.35;6.60;;;;;;;13.51;100.00;100813.44;5108930;28;20325;-67
2023/05/04 04:14:24;;;;;;;6.63;5.93;;;;;;;13.44;100.00;100811.44;5109664;28;20028;-66
2023/05/04 04:16:49;;;;;;;5.70;5.10;;;;;;;13.51;100.00;100818.81;5108309;28;20119;-66
2023/05/04 04:19:15;;;;;;;6.15;5.40;;;;;;;13.57;100.00;100836.25;5110378;27;20054;-67
2023/05/04 04:21:40;;;;;;;6.90;5.78;;;;;;;13.58;100.00;100844.22;5110399;28;20392;-67
2023/05/04 04:24:06;;;;;;;8.50;6.07;;;;;;;13.49;100.00;100837.00;5109872;28;20488;-67
2023/05/04 04:26:32;;;;;;;6.82;5.50;;;;;;;13.52;100.00;100842.06;5108973;28;20139;-67
2023/05/04 04:28:57;;;;;;;7.30;5.72;;;;;;;13.57;100.00;100849.75;5107857;28;20110;-67
2023/05/04 04:31:23;;;;;;;6.05;5.40;;;;;;;13.59;100.00;100850.47;5110439;28;20111;-66
2023/05/04 04:33:49;;;;;;;7.63;5.53;;;;;;;13.60;100.00;100849.47;5108472;28;20558;-67
2023/05/04 04:36:17;;;;;;;11.48;5.55;;;;;;;13.62;100.00;100844.78;5107425;28;20035;-67
2023/05/04 04:38:43;;;;;;;4.93;4.35;;;;;;;13.63;100.00;100841.97;5108983;27;20023;-67
2023/05/04 04:41:09;;;;;;;6.15;5.20;;;;;;;13.65;99.60;100839.94;5109178;28;20043;-67
2023/05/04 04:43:34;;;;;;;7.68;5.30;;;;;;;13.70;99.31;100853.88;5108330;28;20383;-67
2023/05/04 04:46:01;;;;;;;6.93;4.60;;;;;;;13.70;98.28;100847.63;5110044;28;20035;-67
2023/05/04 04:48:27;;;;;;;5.40;4.82;;;;;;;13.66;98.44;100832.72;5109705;28;20076;-67
2023/05/04 04:50:53;;;;;;;6.10;5.20;;;;;;;13.75;98.81;100858.84;5110099;28;20039;-67
2023/05/04 04:53:19;;;;;;;5.30;4.80;;;;;;;13.81;97.89;100860.97;5108484;28;20506;-62
2023/05/04 04:55:44;;;;;;;7.35;5.57;;;;;;;13.82;97.43;100867.19;5109591;28;20419;-61
2023/05/04 04:58:10;;;;;;;5.55;4.57;;;;;;;13.85;97.11;100867.78;5109539;28;20032;-62
2023/05/04 05:00:36;;;;;;;5.20;4.68;;;;;;;13.90;96.71;100881.69;5109761;28;20050;-62
2023/05/04 05:03:02;;;;;;;5.15;4.65;;;;;;;13.80;97.33;100856.56;5109437;28;20639;-62
2023/05/04 05:05:28;;;;;;;5.97;5.15;;;;;;;13.90;97.58;100870.06;5109740;28;20024;-61
2023/05/04 05:07:53;;;;;;;8.43;5.30;;;;;;;13.67;98.31;100831.72;5109223;28;20024;-61
2023/05/04 05:10:20;;;;;;;5.95;4.75;;;;;;;13.98;97.58;100875.56;5109619;28;20042;-61
2023/05/04 05:12:46;;;;;;;8.02;5.35;;;;;;;13.98;96.60;100879.13;5109201;28;20026;-61
2023/05/04 05:15:12;;;;;;;6.93;4.75;;;;;;;13.94;96.05;100861.53;5109732;28;20047;-62
2023/05/04 05:17:38;;;;;;;8.98;5.30;;;;;;;14.05;95.94;100876.69;5108980;28;20503;-62
2023/05/04 05:20:10;;;;;;;6.38;5.03;;;;;;;14.09;96.58;100873.56;5105644;28;20037;-60
2023/05/04 05:22:39;;;;;;;7.22;5.35;;;;;;;14.13;96.24;100871.44;5108565;28;20106;-61
2023/05/04 05:25:06;;;;;;;6.18;5.03;;;;;;;14.19;95.78;100878.97;5108648;28;20043;-61
2023/05/04 05:27:33;;;;;;;6.32;5.10;;;;;;;14.22;96.24;100873.28;5108736;28;20024;-61
2023/05/04 05:30:01;;;;;;;6.72;4.57;;;;;;;14.24;96.42;100857.81;5107615;28;20518;-61
2023/05/04 05:32:27;;;;;;;7.75;5.53;;;;;;;14.32;96.33;100864.19;5108990;28;20044;-61
2023/05/04 05:34:53;;;;;;;6.63;5.43;;;;;;;14.37;96.27;100871.84;5108141;28;20028;-61
2023/05/04 05:37:18;;;;;;;7.82;5.13;;;;;;;14.34;96.21;100855.97;5108264;28;20059;-61
2023/05/04 05:39:44;;;;;;;8.65;5.43;;;;;;;14.38;96.44;100857.38;5107937;28;20028;-61
2023/05/04 05:42:10;;;;;;;5.97;4.70;;;;;;;14.51;96.42;100871.41;5107526;28;20042;-61
2023/05/04 05:44:36;;;;;;;5.30;4.80;;;;;;;14.53;96.82;100866.72;5106489;28;20031;-61
2023/05/04 05:47:02;;;;;;;6.63;5.13;;;;;;;14.59;95.97;100877.78;5108596;28;20040;-61
2023/05/04 05:49:28;;;;;;;8.95;5.50;;;;;;;14.63;96.44;100878.31;5107891;28;20028;-61
2023/05/04 05:51:53;;;;;;;7.10;5.13;;;;;;;14.66;95.44;100878.03;5108912;28;20049;-61
2023/05/04 05:54:21;;;;;;;6.72;5.03;;;;;;;14.71;94.94;100878.47;5108909;28;20041;-61
2023/05/04 05:56:47;;;;;;;6.72;4.82;;;;;;;14.67;94.48;100866.25;5108783;28;20015;-62
2023/05/04 05:59:14;;;;;;;6.25;4.97;;;;;;;14.65;94.24;100857.44;5108876;28;20093;-61
2023/05/04 06:01:40;;;;;;;6.90;5.43;;;;;;;14.86;94.95;100893.16;5108895;28;20220;-61
2023/05/04 06:04:06;;;;;;;7.80;5.40;;;;;;;14.66;94.59;100846.50;5108791;28;20031;-61
2023/05/04 06:06:31;;;;;;;5.25;4.75;;;;;;;15.00;94.01;100887.28;5108651;28;20035;-61
2023/05/04 06:08:56;;;;;;;6.68;4.40;;;;;;;15.05;93.55;100880.44;5108832;28;20026;-61
2023/05/04 06:11:22;;;;;;;6.05;4.95;;;;;;;15.14;93.30;100867.88;5108661;28;20059;-61
2023/05/04 06:13:47;;;;;;;6.88;5.25;;;;;;;15.34;91.30;100882.97;5108145;28;20112;-61
2023/05/04 06:16:13;;;;;;;6.43;4.88;;;;;;;15.48;89.98;100896.03;5108511;28;20023;-61
2023/05/04 06:18:39;;;;;;;5.22;4.50;;;;;;;15.53;88.68;100881.06;5108739;28;20102;-61
2023/05/04 06:21:04;;;;;;;5.50;4.78;;;;;;;15.62;88.58;100903.63;5107175;28;20024;-61
2023/05/04 06:23:30;;;;;;;6.38;4.60;;;;;;;15.67;88.39;100898.59;5108550;28;20039;-61
2023/05/04 06:25:56;;;;;;;5.97;4.30;;;;;;;15.70;88.55;100912.66;5108725;28;20054;-61
2023/05/04 06:28:22;;;;;;;6.22;5.20;;;;;;;15.71;88.71;100900.00;5108620;28;20165;-63
2023/05/04 06:30:47;;;;;;;4.20;3.80;;;;;;;15.74;88.38;100894.28;5108855;28;20032;-62
2023/05/04 06:33:13;;;;;;;4.20;3.80;;;;;;;15.89;85.74;100901.72;5108610;28;20035;-61
2023/05/04 06:35:38;;;;;;;5.60;4.50;;;;;;;16.05;84.06;100887.47;5108438;28;20035;-61
2023/05/04 06:38:04;;;;;;;3.97;3.58;;;;;;;16.28;82.50;100888.69;5108155;28;20031;-62
2023/05/04 06:40:29;;;;;;;6.43;4.25;;;;;;;16.52;83.65;100896.16;5109289;28;20415;-61
2023/05/04 06:42:55;;;;;;;4.85;4.03;;;;;;;16.66;78.60;100882.03;5112346;28;20102;-61
2023/05/04 06:45:20;;;;;;;4.28;3.88;;;;;;;16.91;78.81;100900.16;5112216;28;20101;-62
2023/05/04 06:47:46;;;;;;;6.95;4.00;;;;;;;17.15;76.52;100886.72;5109853;28;20425;-61
2023/05/04 06:50:12;;;;;;;4.50;3.63;;;;;;;17.36;76.79;100888.00;5112201;28;20043;-62
2023/05/04 06:52:39;;;;;;;4.40;3.28;;;;;;;17.60;74.77;100882.66;5111895;28;20499;-62
2023/05/04 06:55:06;;;;;;;4.82;3.55;;;;;;;17.82;75.04;100882.03;5110633;28;20030;-61
2023/05/04 06:57:31;;;;;;;3.72;3.30;;;;;;;18.03;72.79;100886.97;5111802;28;20032;-62
2023/05/04 06:59:57;;;;;;;3.95;3.20;;;;;;;18.26;68.94;100888.00;5112171;28;20503;-62
2023/05/04 07:02:23;;;;;;;3.05;2.83;;;;;;;18.41;68.54;100882.78;5112453;27;20490;-62
2023/05/04 07:04:51;;;;;;;3.63;3.30;;;;;;;18.58;69.18;100888.03;5110748;28;20123;-62
2023/05/04 07:07:17;;;;;;;4.53;3.58;;;;;;;18.66;68.79;100870.81;5110430;28;20096;-61
2023/05/04 07:09:43;;;;;;;3.75;3.22;;;;;;;18.88;66.05;100887.25;5111029;28;20066;-62
2023/05/04 07:12:08;;;;;;;3.28;2.95;;;;;;;19.06;65.81;100897.91;5110715;28;20472;-62
2023/05/04 07:14:34;;;;;;;4.32;2.97;;;;;;;19.21;65.52;100891.56;5111109;28;20474;-62
2023/05/04 07:17:00;;;;;;;3.95;3.45;;;;;;;19.45;63.10;100888.75;5111657;28;20054;-62
2023/05/04 07:19:26;;;;;;;3.53;3.10;;;;;;;19.60;62.62;100899.72;5111053;28;20128;-61
2023/05/04 07:21:52;;;;;;;4.20;3.17;;;;;;;19.63;63.39;100894.78;5110678;28;20396;-61
2023/05/04 07:24:17;;;;;;;3.83;3.25;;;;;;;19.68;63.42;100895.13;5111035;28;20036;-62
2023/05/04 07:26:43;;;;;;;4.00;3.45;;;;;;;19.73;61.73;100892.69;5111494;28;20035;-61
2023/05/04 07:29:08;;;;;;;3.63;3.17;;;;;;;19.73;61.45;100898.13;5111953;28;20020;-62
2023/05/04 07:31:35;;;;;;;5.22;3.30;;;;;;;19.76;62.05;100910.53;5111584;28;20059;-62
2023/05/04 07:34:00;;;;;;;4.45;3.63;;;;;;;19.82;62.35;100910.69;5111934;28;20098;-62
2023/05/04 07:36:26;;;;;;;3.55;3.25;;;;;;;19.70;62.38;100868.53;5111408;28;20035;-62
2023/05/04 07:38:53;;;;;;;5.72;3.13;;;;;;;20.01;60.09;100912.06;5111497;28;20556;-62
2023/05/04 07:41:19;;;;;;;5.97;3.90;;;;;;;20.08;58.52;100905.72;5111371;28;20031;-62
2023/05/04 07:43:44;;;;;;;6.15;4.00;;;;;;;20.06;58.31;100893.34;5111205;28;20748;-61
2023/05/04 07:46:10;;;;;;;4.50;3.70;;;;;;;20.17;57.78;100903.81;5110813;28;20055;-61
2023/05/04 07:48:36;;;;;;;5.25;3.45;;;;;;;20.13;57.69;100895.16;5111021;28;20544;-67
2023/05/04 07:51:01;;;;;;;5.70;3.80;;;;;;;20.07;58.31;100905.91;5111184;28;20115;-67
2023/05/04 07:53:27;;;;;;;3.40;3.08;;;;;;;20.03;59.58;100899.97;5110988;28;20028;-67
2023/05/04 07:55:59;;;;;;;5.10;4.00;;;;;;;20.01;60.08;100914.81;5110908;28;20024;-67
2023/05/04 07:58:25;;;;;;;8.32;3.78;;;;;;;19.91;60.60;100915.06;5110612;28;20581;-61
2023/05/04 08:00:50;;;;;;;5.07;3.70;;;;;;;19.85;60.64;100921.22;5108019;27;20020;-61
2023/05/04 08:03:16;;;;;;;4.55;3.65;;;;;;;19.91;61.50;100922.34;5109325;27;20353;-62
2023/05/04 08:05:41;;;;;;;4.20;3.70;;;;;;;19.91;61.09;100912.31;5111128;28;20039;-61
2023/05/04 08:08:08;;;;;;;4.28;3.60;;;;;;;19.84;61.49;100896.88;5113379;27;20022;-62
2023/05/04 08:10:37;;;;;;;4.35;3.88;;;;;;;19.99;61.74;100914.97;5109169;28;20546;-61
2023/05/04 08:13:04;;;;;;;6.68;3.90;;;;;;;19.97;62.65;100917.06;5109616;28;20061;-62
2023/05/04 08:15:29;;;;;;;4.80;4.30;;;;;;;20.15;61.15;100914.91;5110694;28;20035;-62
2023/05/04 08:17:55;;;;;;;4.03;3.60;;;;;;;20.01;61.89;100917.53;5109327;28;20468;-62
2023/05/04 08:20:21;;;;;;;4.35;3.90;;;;;;;19.96;62.25;100922.69;5110362;28;20042;-61
2023/05/04 08:22:46;;;;;;;6.60;4.22;;;;;;;20.06;61.22;100912.41;5110744;27;20023;-62
2023/05/04 08:25:12;;;;;;;4.28;3.90;;;;;;;20.02;61.58;100911.91;5110703;28;20081;-61
2023/05/04 08:27:38;;;;;;;4.53;3.78;;;;;;;19.97;62.13;100908.03;5108968;28;20422;-62
2023/05/04 08:30:04;;;;;;;4.63;4.22;;;;;;;20.06;62.29;100910.50;5110411;28;20034;-62
2023/05/04 08:32:31;;;;;;;4.95;4.30;;;;;;;20.03;62.62;100927.19;5109642;28;20436;-62
2023/05/04 08:34:56;;;;;;;5.90;4.18;;;;;;;20.22;61.93;100912.31;5110565;28;20027;-61
2023/05/04 08:37:21;;;;;;;4.47;4.07;;;;;;;20.21;62.04;100907.88;5108924;28;20023;-62
2023/05/04 08:39:47;;;;;;;4.75;4.13;;;;;;;20.14;61.78;100899.59;5108989;28;20114;-62
2023/05/04 08:42:12;;;;;;;4.18;3.67;;;;;;;20.11;62.44;100919.03;5106864;28;20051;-62
2023/05/04 08:44:38;;;;;;;5.93;4.30;;;;;;;20.06;62.05;100924.13;5108695;28;20085;-62
2023/05/04 08:47:03;;;;;;;3.95;3.55;;;;;;;20.07;62.74;100920.38;5108264;28;20118;-61
2023/05/04 08:49:29;;;;;;;4.25;3.88;;;;;;;20.08;63.36;100922.06;5108410;28;20510;-62
2023/05/04 08:51:56;;;;;;;4.65;3.80;;;;;;;20.15;62.94;100923.06;5107737;28;20088;-61
2023/05/04 08:54:22;;;;;;;5.65;4.57;;;;;;;20.36;61.55;100913.38;5107277;28;20031;-62
2023/05/04 08:56:50;;;;;;;5.38;3.63;;;;;;;20.44;61.73;100913.31;5109765;28;20027;-62
2023/05/04 08:59:20;;;;;;;4.25;3.85;;;;;;;20.49;60.76;100899.97;5109795;28;20028;-62
2023/05/04 09:01:53;;;;;;;4.25;3.83;;;;;;;20.62;61.27;100917.41;5109782;28;20028;-62
2023/05/04 09:04:19;;;;;;;366.90;323.95;;;;;;;20.67;60.51;100898.59;5110037;28;20028;-61
2023/05/04 09:06:48;;;;;;;111.97;94.18;;;;;;;20.85;60.53;100903.69;5108240;28;20096;-62
2023/05/04 09:09:14;;;;;;;13.77;11.25;;;;;;;21.01;59.70;100895.38;5109627;28;20084;-62
2023/05/04 09:11:39;;;;;;;8.50;7.60;;;;;;;21.22;59.30;100906.41;5109338;28;20031;-62
2023/05/04 09:14:05;;;;;;;6.97;4.95;;;;;;;21.30;59.07;100907.13;5103271;27;20031;-62
2023/05/04 09:16:35;;;;;;;5.40;4.20;;;;;;;21.46;57.89;100900.63;5108422;28;20039;-62
2023/05/04 09:19:01;;;;;;;4.50;4.05;;;;;;;21.49;57.07;100898.38;5108337;27;20372;-62
2023/05/04 09:21:28;;;;;;;4.97;3.90;;;;;;;21.49;58.25;100902.97;5108990;28;20031;-61
2023/05/04 09:23:54;;;;;;;4.32;3.92;;;;;;;21.51;58.91;100909.09;5106121;28;20054;-62
2023/05/04 09:26:27;;;;;;;5.25;3.95;;;;;;;21.61;57.70;100905.00;5107212;28;20032;-62
2023/05/04 09:28:53;;;;;;;4.70;4.22;;;;;;;21.79;56.53;100907.34;5107717;28;20019;-62
2023/05/04 09:31:18;;;;;;;5.25;4.10;;;;;;;21.69;56.73;100902.19;5108668;28;20027;-61
2023/05/04 09:33:44;;;;;;;6.45;4.20;;;;;;;21.51;57.30;100881.78;5107107;28;20114;-61
2023/05/04 09:36:17;;;;;;;5.00;4.10;;;;;;;21.70;56.21;100897.56;5107957;28;20043;-63
2023/05/04 09:38:43;;;;;;;4.32;3.83;;;;;;;21.54;56.96;100895.06;5109620;28;20076;-67
2023/05/04 09:41:09;;;;;;;6.07;4.35;;;;;;;21.75;56.16;100893.25;5109383;28;20032;-67
2023/05/04 09:43:42;;;;;;;5.10;4.20;;;;;;;21.81;55.27;100894.34;5107806;28;20031;-67
2023/05/04 09:46:17;;;;;;;5.93;4.00;;;;;;;21.53;56.07;100879.69;5109154;28;20039;-68
2023/05/04 09:48:51;;;;;;;4.97;3.72;;;;;;;21.43;56.82;100896.38;5108863;28;20422;-67
2023/05/04 09:51:20;;;;;;;6.03;4.20;;;;;;;21.25;56.65;100885.00;5108827;28;20487;-67
2023/05/04 09:53:48;;;;;;;3.90;3.60;;;;;;;21.23;57.25;100886.25;5109017;28;20027;-67
2023/05/04 09:56:19;;;;;;;3.53;3.22;;;;;;;21.20;58.01;100900.25;5110264;28;20038;-67
2023/05/04 09:58:45;;;;;;;5.30;3.75;;;;;;;21.23;56.90;100884.38;5107108;28;20039;-67
2023/05/04 10:01:11;;;;;;;6.00;4.28;;;;;;;21.28;55.88;100868.25;5108942;28;20109;-67
2023/05/04 10:03:36;;;;;;;4.75;4.00;;;;;;;21.04;57.02;100868.56;5108761;28;20039;-67
2023/05/04 10:06:07;;;;;;;4.03;3.20;;;;;;;21.07;57.89;100884.56;5108583;28;20031;-67
2023/05/04 10:08:34;;;;;;;5.38;3.92;;;;;;;21.00;57.02;100860.97;5108180;28;20043;-67
2023/05/04 10:11:00;;;;;;;6.03;3.45;;;;;;;21.12;56.83;100875.81;5107467;28;20027;-67
2023/05/04 10:13:26;;;;;;;3.95;3.63;;;;;;;21.20;56.55;100864.78;5108331;28;20031;-68
2023/05/04 10:16:10;;;;;;;4.63;3.53;;;;;;;21.22;56.27;100871.75;5108075;28;20030;-67
2023/05/04 10:19:12;;;;;;;3.67;3.38;;;;;;;21.31;55.78;100859.69;5108336;28;20050;-67
2023/05/04 10:21:53;;;;;;;4.07;3.33;;;;;;;21.34;57.08;100853.84;5108301;28;20681;-67
2023/05/04 10:24:27;;;;;;;3.30;3.08;;;;;;;21.44;56.45;100859.84;5108568;28;20421;-67
2023/05/04 10:27:14;;;;;;;4.70;3.75;;;;;;;21.43;56.04;100854.59;5108390;28;20039;-67
2023/05/04 10:29:41;;;;;;;3.85;3.42;;;;;;;21.57;54.79;100845.53;5108033;28;20084;-67
2023/05/04 10:32:20;;;;;;;4.40;3.45;;;;;;;21.58;55.44;100860.88;5107447;28;20024;-67
2023/05/04 10:34:46;;;;;;;4.10;3.70;;;;;;;21.59;55.99;100847.03;5106675;28;20031;-67
2023/05/04 10:37:16;;;;;;;5.45;3.75;;;;;;;21.57;55.84;100826.44;5108332;28;20021;-67
2023/05/04 10:39:51;;;;;;;4.47;3.45;;;;;;;21.68;56.32;100842.28;5108073;28;20088;-67
2023/05/04 10:42:17;;;;;;;4.28;3.88;;;;;;;21.76;54.52;100834.00;5104952;28;20116;-67
2023/05/04 10:44:53;;;;;;;5.30;3.95;;;;;;;21.77;54.32;100835.72;5108016;28;20055;-67
2023/05/04 10:47:35;;;;;;;4.28;3.88;;;;;;;21.76;54.45;100831.25;5108136;28;20095;-67
2023/05/04 10:50:09;;;;;;;3.92;3.35;;;;;;;21.85;53.73;100830.97;5105267;28;20026;-67
2023/05/04 10:52:45;;;;;;;;;;;;;;;21.99;52.36;100829.22;5108719;28;20047;-67
2023/05/04 10:55:11;;;;;;;4.80;3.20;;;;;;;22.03;51.95;100819.56;5108626;28;20264;-67
2023/05/04 10:57:50;;;;;;;4.03;3.63;;;;;;;22.09;51.30;100821.53;5107968;28;20034;-67
2023/05/04 11:00:17;;;;;;;4.45;3.80;;;;;;;22.17;51.97;100814.03;5108341;28;20023;-67
2023/05/04 11:02:42;;;;;;;4.45;3.90;;;;;;;22.20;52.15;100812.78;5107925;28;20106;-67
2023/05/04 11:05:08;;;;;;;9.20;3.85;;;;;;;22.31;51.61;100809.50;5108390;28;20186;-67
2023/05/04 11:07:38;;;;;;;3.55;3.25;;;;;;;22.36;51.94;100815.22;5107959;28;20560;-67
2023/05/04 11:10:05;;;;;;;4.13;3.83;;;;;;;22.24;52.10;100811.34;5108270;28;20031;-67
2023/05/04 11:12:31;;;;;;;6.00;3.25;;;;;;;22.22;52.18;100818.91;5107974;28;20476;-67
2023/05/04 11:15:09;;;;;;;4.90;2.83;;;;;;;22.18;52.15;100803.94;5108250;28;20020;-67
2023/05/04 11:17:45;;;;;;;3.45;2.90;;;;;;;22.28;51.88;100813.47;5106744;28;20043;-67
2023/05/04 11:20:18;;;;;;;3.70;3.33;;;;;;;22.30;50.86;100807.81;5108279;28;20028;-67